createdAt,value
2022-08-22T00:07:10.268Z,0
2022-08-22T00:16:47.343Z,0
2022-08-22T00:26:24.728Z,0
2022-08-22T00:36:01.650Z,0
2022-08-22T00:45:38.782Z,0
2022-08-22T00:55:15.572Z,0
2022-08-22T01:14:34.118Z,0
2022-08-22T01:33:43.955Z,0
2022-08-22T01:43:21.041Z,0
2022-08-22T01:52:57.945Z,0
2022-08-22T02:02:34.441Z,0
2022-08-22T02:12:13.811Z,0
2022-08-22T02:21:48.535Z,0
2022-08-22T02:41:01.635Z,0
2022-08-22T02:50:38.270Z,0
2022-08-22T03:00:29.672Z,0
2022-08-22T03:09:52.041Z,0
2022-08-22T03:19:28.830Z,0
2022-08-22T03:29:05.856Z,0
2022-08-22T03:38:43.179Z,0
2022-08-22T03:48:20.030Z,0
2022-08-22T04:07:33.820Z,0
2022-08-22T04:17:11.050Z,0
2022-08-22T04:26:48.337Z,0
2022-08-22T04:36:25.647Z,0
2022-08-22T04:46:02.652Z,0
2022-08-22T04:55:39.998Z,0
2022-08-22T05:05:17.591Z,0
2022-08-22T05:14:55.338Z,0
2022-08-22T05:34:09.977Z,0
2022-08-22T05:43:49.802Z,0
2022-08-22T05:53:25.483Z,0
2022-08-22T06:12:42.048Z,0
2022-08-22T06:22:18.882Z,0
2022-08-22T06:31:56.674Z,0
2022-08-22T06:51:12.175Z,0
2022-08-22T07:20:06.215Z,0
2022-08-22T07:29:44.904Z,1
2022-08-22T07:39:22.842Z,0
2022-08-22T07:49:08.924Z,0
2022-08-22T07:58:38.099Z,0
2022-08-22T08:08:15.896Z,0
2022-08-22T08:17:54.380Z,0
2022-08-22T08:27:32.860Z,0
2022-08-22T08:37:12.824Z,1
2022-08-22T08:56:28.345Z,1
2022-08-22T09:06:07.563Z,1
2022-08-22T09:15:54.883Z,1
2022-08-22T09:25:28.734Z,1
2022-08-22T09:35:06.296Z,1
2022-08-22T09:44:45.246Z,1
2022-08-22T09:54:31.051Z,2
2022-08-22T10:04:19.403Z,4
2022-08-22T10:33:33.180Z,7
2022-08-22T10:43:16.447Z,6
2022-08-22T10:52:32.040Z,6
2022-08-22T11:12:11.838Z,5
2022-08-22T11:21:48.813Z,5
2022-08-22T11:31:31.601Z,5
2022-08-22T11:50:42.165Z,5
2022-08-22T12:09:59.053Z,1
2022-08-22T12:19:18.332Z,1
2022-08-22T12:29:01.120Z,3
2022-08-22T12:38:39.570Z,1
2022-08-22T12:48:22.835Z,4
2022-08-22T12:58:01.362Z,4
2022-08-22T13:07:44.826Z,5
2022-08-22T13:26:51.624Z,1
2022-08-22T13:36:22.032Z,1
2022-08-22T13:46:01.770Z,2
2022-08-22T13:55:37.415Z,1
2022-08-22T14:05:15.453Z,1
2022-08-22T14:24:45.528Z,3
2022-08-22T14:34:29.617Z,3
2022-08-22T14:44:08.858Z,3
2022-08-22T15:03:05.527Z,1
2022-08-22T15:12:34.487Z,1
2022-08-22T15:22:09.729Z,1
2022-08-22T15:31:46.552Z,1
2022-08-22T15:41:22.790Z,1
2022-08-22T15:50:57.739Z,1
2022-08-22T16:00:34.035Z,1
2022-08-22T16:19:49.272Z,1
2022-08-22T16:39:02.911Z,1
2022-08-22T16:58:15.909Z,0
2022-08-22T17:07:52.510Z,0
2022-08-22T17:17:29.031Z,0
2022-08-22T17:27:06.142Z,0
2022-08-22T17:36:42.758Z,0
2022-08-22T17:46:18.870Z,0
2022-08-22T17:55:55.553Z,0
2022-08-22T18:05:32.259Z,0
2022-08-22T18:15:08.840Z,0
2022-08-22T18:24:45.545Z,0
2022-08-22T18:34:22.168Z,0
2022-08-22T18:43:58.419Z,0
2022-08-22T18:53:34.723Z,0
2022-08-22T19:03:11.375Z,0
2022-08-22T19:12:48.253Z,0
2022-08-22T19:32:01.739Z,0
2022-08-22T19:51:14.814Z,0
2022-08-22T20:10:28.945Z,0
2022-08-22T20:39:20.241Z,0
2022-08-22T20:48:57.260Z,0
2022-08-22T20:58:34.621Z,0
2022-08-22T21:08:11.164Z,0
2022-08-22T21:17:48.236Z,0
2022-08-22T21:27:25.488Z,0
2022-08-22T21:46:39.661Z,0
2022-08-22T22:05:53.498Z,0
2022-08-22T22:15:30.429Z,0
2022-08-22T22:25:39.358Z,0
2022-08-22T22:34:44.467Z,0
2022-08-22T22:44:21.617Z,0
2022-08-22T22:53:58.648Z,0
2022-08-22T23:03:35.839Z,0
2022-08-22T23:13:12.757Z,0
2022-08-22T23:22:49.923Z,0
2022-08-22T23:42:03.712Z,0
2022-08-22T23:51:40.692Z,0
